createdAt,value
2018-12-22T00:00:49.398Z,98.00
2018-12-22T00:03:17.823Z,98.10
2018-12-22T00:05:46.229Z,98.10
2018-12-22T00:08:14.735Z,98.30
2018-12-22T00:10:44.767Z,98.40
2018-12-22T00:13:13.201Z,98.40
2018-12-22T00:15:41.620Z,98.50
2018-12-22T00:18:10.029Z,98.50
2018-12-22T00:20:38.451Z,98.50
2018-12-22T00:23:06.999Z,98.60
2018-12-22T00:25:35.444Z,98.60
2018-12-22T00:28:03.866Z,98.70
2018-12-22T00:30:32.294Z,98.60
2018-12-22T00:33:00.720Z,98.70
2018-12-22T00:35:29.135Z,98.90
2018-12-22T00:37:57.535Z,99.00
2018-12-22T00:40:25.957Z,99.20
2018-12-22T00:42:54.356Z,99.20
2018-12-22T00:45:22.787Z,99.30
2018-12-22T00:47:51.200Z,99.50
2018-12-22T00:50:19.624Z,99.60
2018-12-22T00:52:48.064Z,99.80
2018-12-22T00:55:16.486Z,99.90
2018-12-22T00:57:44.883Z,99.90
2018-12-22T01:00:13.804Z,99.90
2018-12-22T01:02:42.442Z,99.90
2018-12-22T01:05:10.860Z,99.90
2018-12-22T01:07:39.278Z,99.90
2018-12-22T01:10:08.818Z,99.90
2018-12-22T01:12:37.208Z,99.90
2018-12-22T01:15:06.567Z,99.90
2018-12-22T01:17:35.005Z,99.90
2018-12-22T01:20:03.807Z,99.90
2018-12-22T01:22:32.236Z,99.90
2018-12-22T01:25:00.654Z,99.90
2018-12-22T01:27:29.085Z,99.90
2018-12-22T01:29:57.594Z,99.90
2018-12-22T01:32:26.011Z,99.90
2018-12-22T01:34:54.416Z,99.90
2018-12-22T01:37:22.818Z,99.90
2018-12-22T01:39:51.238Z,99.90
2018-12-22T01:42:19.646Z,99.90
2018-12-22T01:44:48.058Z,99.90
2018-12-22T01:47:16.507Z,99.90
2018-12-22T01:49:44.920Z,99.90
2018-12-22T01:52:13.357Z,99.90
2018-12-22T01:54:41.762Z,99.90
2018-12-22T01:57:10.175Z,99.90
2018-12-22T01:59:38.583Z,99.90
2018-12-22T02:02:07.096Z,99.90
2018-12-22T02:04:35.505Z,99.90
2018-12-22T02:07:04.025Z,99.90
2018-12-22T02:09:32.439Z,99.90
2018-12-22T02:12:00.911Z,99.90
2018-12-22T02:14:29.312Z,99.90
2018-12-22T02:16:57.710Z,99.90
2018-12-22T02:19:26.149Z,99.90
2018-12-22T02:21:54.576Z,99.50
2018-12-22T02:24:22.984Z,99.10
2018-12-22T02:26:51.435Z,99.00
2018-12-22T02:29:19.839Z,98.80
2018-12-22T02:31:48.236Z,98.70
2018-12-22T02:34:16.630Z,98.50
2018-12-22T02:36:45.083Z,98.50
2018-12-22T02:39:13.555Z,98.10
2018-12-22T02:41:41.963Z,98.00
2018-12-22T02:44:10.442Z,97.70
2018-12-22T02:46:38.834Z,97.80
2018-12-22T02:49:07.304Z,97.60
2018-12-22T02:51:35.728Z,97.50
2018-12-22T02:54:04.272Z,97.50
2018-12-22T02:56:32.667Z,97.50
2018-12-22T02:59:05.773Z,97.50
2018-12-22T03:01:31.474Z,97.40
2018-12-22T03:03:59.935Z,97.50
2018-12-22T03:06:28.414Z,97.60
2018-12-22T03:08:56.850Z,97.50
2018-12-22T03:11:25.389Z,97.50
2018-12-22T03:13:53.810Z,97.30
2018-12-22T03:16:22.246Z,97.00
2018-12-22T03:18:50.650Z,97.10
2018-12-22T03:21:19.047Z,96.80
2018-12-22T03:23:47.446Z,96.90
2018-12-22T03:26:15.853Z,96.80
2018-12-22T03:28:44.299Z,96.80
2018-12-22T03:31:12.777Z,96.50
2018-12-22T03:33:41.284Z,96.40
2018-12-22T03:36:09.690Z,96.60
2018-12-22T03:38:38.122Z,96.40
2018-12-22T03:41:06.828Z,96.40
2018-12-22T03:43:35.420Z,96.30
2018-12-22T03:46:04.055Z,96.20
2018-12-22T03:48:32.457Z,96.30
2018-12-22T03:51:00.864Z,96.10
2018-12-22T03:53:29.382Z,96.20
2018-12-22T03:55:57.809Z,95.80
2018-12-22T03:58:26.247Z,95.70
2018-12-22T04:00:54.649Z,95.80
2018-12-22T04:03:23.064Z,95.70
2018-12-22T04:05:51.473Z,95.60
2018-12-22T04:08:19.884Z,95.60
2018-12-22T04:10:48.296Z,95.60
2018-12-22T04:13:16.689Z,95.70
2018-12-22T04:15:45.110Z,95.70
2018-12-22T04:18:13.508Z,95.80
2018-12-22T04:20:41.947Z,95.80
2018-12-22T04:23:10.324Z,95.80
2018-12-22T04:25:38.735Z,95.90
2018-12-22T04:28:07.143Z,96.00
2018-12-22T04:30:35.562Z,96.00
2018-12-22T04:33:04.186Z,96.00
2018-12-22T04:35:32.607Z,95.90
2018-12-22T04:38:01.033Z,95.90
2018-12-22T04:40:29.465Z,95.90
2018-12-22T04:42:57.882Z,96.00
2018-12-22T04:45:26.287Z,95.90
2018-12-22T04:47:54.982Z,95.90
2018-12-22T04:50:23.511Z,96.00
2018-12-22T04:52:51.902Z,96.10
2018-12-22T04:55:20.322Z,96.10
2018-12-22T04:57:48.841Z,96.00
2018-12-22T05:00:17.334Z,96.10
2018-12-22T05:02:45.740Z,96.10
2018-12-22T05:05:14.154Z,96.10
2018-12-22T05:07:42.545Z,96.10
2018-12-22T05:10:10.983Z,96.20
2018-12-22T05:12:39.363Z,96.30
2018-12-22T05:15:08.877Z,96.20
2018-12-22T05:17:37.306Z,96.30
2018-12-22T05:20:06.483Z,96.40
2018-12-22T05:22:34.853Z,96.50
2018-12-22T05:25:03.497Z,96.50
2018-12-22T05:27:32.004Z,96.60
2018-12-22T05:30:00.447Z,96.60
2018-12-22T05:32:28.952Z,96.60
2018-12-22T05:34:57.481Z,96.80
2018-12-22T05:37:25.998Z,96.80
2018-12-22T05:39:54.616Z,96.90
2018-12-22T05:42:23.126Z,96.90
2018-12-22T05:44:51.536Z,97.00
2018-12-22T05:47:20.108Z,97.10
2018-12-22T05:49:48.576Z,97.00
2018-12-22T05:52:16.982Z,97.10
2018-12-22T05:54:45.508Z,96.80
2018-12-22T05:57:13.896Z,97.10
2018-12-22T05:59:42.387Z,97.00
2018-12-22T06:02:10.848Z,96.80
2018-12-22T06:04:39.250Z,96.70
2018-12-22T06:07:07.677Z,96.80
2018-12-22T06:09:36.114Z,97.10
2018-12-22T06:12:04.647Z,96.70
2018-12-22T06:14:33.548Z,96.80
2018-12-22T06:17:02.164Z,96.80
2018-12-22T06:19:30.579Z,96.90
2018-12-22T06:21:59.295Z,97.10
2018-12-22T06:24:27.985Z,97.10
2018-12-22T06:26:56.677Z,97.20
2018-12-22T06:29:25.169Z,97.30
2018-12-22T06:31:53.619Z,97.30
2018-12-22T06:34:22.772Z,97.80
2018-12-22T06:36:51.802Z,97.40
2018-12-22T06:39:20.252Z,97.40
2018-12-22T06:41:48.670Z,97.40
2018-12-22T06:44:17.186Z,97.40
2018-12-22T06:46:45.740Z,97.40
2018-12-22T06:49:14.153Z,97.40
2018-12-22T06:51:42.721Z,97.30
2018-12-22T06:54:11.161Z,97.20
2018-12-22T06:56:39.559Z,97.10
2018-12-22T06:59:07.984Z,97.10
2018-12-22T07:01:36.415Z,97.10
2018-12-22T07:04:04.830Z,97.10
2018-12-22T07:06:33.251Z,97.00
2018-12-22T07:09:01.723Z,97.00
2018-12-22T07:11:30.209Z,97.00
2018-12-22T07:13:58.753Z,97.00
2018-12-22T07:16:27.171Z,97.10
2018-12-22T07:18:55.588Z,97.00
2018-12-22T07:21:24.055Z,97.10
2018-12-22T07:23:52.528Z,96.70
2018-12-22T07:26:20.923Z,97.10
2018-12-22T07:28:49.345Z,97.20
2018-12-22T07:31:17.796Z,97.30
2018-12-22T07:33:46.279Z,97.30
2018-12-22T07:36:14.773Z,97.40
2018-12-22T07:38:43.214Z,97.40
2018-12-22T07:41:11.758Z,97.40
2018-12-22T07:43:40.214Z,97.40
2018-12-22T07:46:08.658Z,97.50
2018-12-22T07:48:37.347Z,97.60
2018-12-22T07:51:05.748Z,97.70
2018-12-22T07:53:34.176Z,97.70
2018-12-22T07:56:02.682Z,97.60
2018-12-22T07:58:31.168Z,97.60
2018-12-22T08:00:59.645Z,97.60
2018-12-22T08:03:28.136Z,97.70
2018-12-22T08:05:56.588Z,97.70
2018-12-22T08:08:25.189Z,97.60
2018-12-22T08:10:53.652Z,97.50
2018-12-22T08:13:22.069Z,97.50
2018-12-22T08:15:50.643Z,97.60
2018-12-22T08:18:19.078Z,97.50
2018-12-22T08:20:47.512Z,97.50
2018-12-22T08:23:16.041Z,97.40
2018-12-22T08:25:44.515Z,97.30
2018-12-22T08:28:13.015Z,97.20
2018-12-22T08:30:43.681Z,97.20
2018-12-22T08:33:12.215Z,97.20
2018-12-22T08:35:40.826Z,97.10
2018-12-22T08:38:09.368Z,97.20
2018-12-22T08:40:37.784Z,97.10
2018-12-22T08:43:06.225Z,97.00
2018-12-22T08:45:34.768Z,97.00
2018-12-22T08:48:03.291Z,97.00
2018-12-22T08:50:31.895Z,96.90
2018-12-22T08:53:00.385Z,96.80
2018-12-22T08:55:28.842Z,96.70
2018-12-22T08:57:57.314Z,96.80
2018-12-22T09:00:25.800Z,96.90
2018-12-22T09:02:54.336Z,96.80
2018-12-22T09:05:23.047Z,96.90
2018-12-22T09:07:51.525Z,96.80
2018-12-22T09:10:19.975Z,96.90
2018-12-22T09:12:48.440Z,96.80
2018-12-22T09:15:16.935Z,96.70
2018-12-22T09:17:45.400Z,96.70
2018-12-22T09:20:13.894Z,96.70
2018-12-22T09:22:42.342Z,96.80
2018-12-22T09:25:10.913Z,96.90
2018-12-22T09:27:39.395Z,96.80
2018-12-22T09:30:11.359Z,96.80
2018-12-22T09:32:39.891Z,96.80
2018-12-22T09:35:08.537Z,96.90
2018-12-22T09:37:36.958Z,96.80
2018-12-22T09:40:06.233Z,96.70
2018-12-22T09:42:34.746Z,96.50
2018-12-22T09:45:03.359Z,96.40
2018-12-22T09:47:31.838Z,96.20
2018-12-22T09:50:00.412Z,96.20
2018-12-22T09:52:28.890Z,96.20
2018-12-22T09:54:57.384Z,95.90
2018-12-22T09:57:25.804Z,95.70
2018-12-22T09:59:54.371Z,95.80
2018-12-22T10:02:22.877Z,95.80
2018-12-22T10:04:51.416Z,95.80
2018-12-22T10:07:19.986Z,95.30
2018-12-22T10:09:48.456Z,95.50
2018-12-22T10:12:17.067Z,95.50
2018-12-22T10:14:45.622Z,95.40
2018-12-22T10:17:14.093Z,95.30
2018-12-22T10:19:42.601Z,95.20
2018-12-22T10:22:11.170Z,95.20
2018-12-22T10:24:39.664Z,95.10
2018-12-22T10:27:08.129Z,95.10
2018-12-22T10:29:36.859Z,95.10
2018-12-22T10:32:05.434Z,95.00
2018-12-22T10:34:33.887Z,95.00
2018-12-22T10:37:02.418Z,95.00
2018-12-22T10:39:30.884Z,95.00
2018-12-22T10:41:59.486Z,94.80
2018-12-22T10:44:27.987Z,94.80
2018-12-22T10:46:56.462Z,94.80
2018-12-22T10:49:24.953Z,94.60
2018-12-22T10:51:53.487Z,94.40
2018-12-22T10:54:22.020Z,94.10
2018-12-22T10:56:50.450Z,94.30
2018-12-22T10:59:18.887Z,94.20
2018-12-22T11:01:47.495Z,94.00
2018-12-22T11:04:15.925Z,94.20
2018-12-22T11:06:44.413Z,93.60
2018-12-22T11:09:16.128Z,93.00
2018-12-22T11:11:44.646Z,92.60
2018-12-22T11:14:13.143Z,92.50
2018-12-22T11:16:41.618Z,92.30
2018-12-22T11:19:10.177Z,91.70
2018-12-22T11:21:38.702Z,91.60
2018-12-22T11:24:07.224Z,91.30
2018-12-22T11:26:35.646Z,90.80
2018-12-22T11:29:04.570Z,90.10
2018-12-22T11:31:35.085Z,90.20
2018-12-22T11:34:03.758Z,87.80
2018-12-22T11:36:32.267Z,86.60
2018-12-22T11:39:00.820Z,85.40
2018-12-22T11:41:29.308Z,85.80
2018-12-22T11:43:57.768Z,86.70
2018-12-22T11:46:26.431Z,86.00
2018-12-22T11:49:07.208Z,84.70
2018-12-22T11:51:35.675Z,83.50
2018-12-22T11:54:04.123Z,81.30
2018-12-22T11:56:32.737Z,80.50
2018-12-22T11:59:01.224Z,79.10
2018-12-22T12:01:29.671Z,78.30
2018-12-22T12:03:58.113Z,78.40
2018-12-22T12:06:26.559Z,78.80
2018-12-22T12:08:55.047Z,80.20
2018-12-22T12:11:23.512Z,80.10
2018-12-22T12:13:51.982Z,80.30
2018-12-22T12:16:27.221Z,80.10
2018-12-22T12:19:11.146Z,81.50
2018-12-22T12:21:39.613Z,80.50
2018-12-22T12:24:08.040Z,79.20
2018-12-22T12:26:36.598Z,77.70
2018-12-22T12:29:05.099Z,77.00
2018-12-22T12:31:33.549Z,79.00
2018-12-22T12:34:02.236Z,78.10
2018-12-22T12:36:30.681Z,75.20
2018-12-22T12:38:59.337Z,73.60
2018-12-22T12:41:27.788Z,73.00
2018-12-22T12:43:56.261Z,74.50
2018-12-22T12:46:29.834Z,75.90
2018-12-22T12:48:58.366Z,75.60
2018-12-22T12:51:26.867Z,73.20
2018-12-22T12:53:55.310Z,72.60
2018-12-22T12:56:23.747Z,74.80
2018-12-22T12:58:52.265Z,78.00
2018-12-22T13:01:20.707Z,79.90
2018-12-22T13:03:49.154Z,80.90
2018-12-22T13:06:17.579Z,79.40
2018-12-22T13:08:45.991Z,78.00
2018-12-22T13:11:14.415Z,79.50
2018-12-22T13:13:48.428Z,80.90
2018-12-22T13:16:16.849Z,82.80
2018-12-22T13:18:45.294Z,80.80
2018-12-22T13:21:13.719Z,79.10
2018-12-22T13:23:42.254Z,77.00
2018-12-22T13:26:10.737Z,75.10
2018-12-22T13:28:39.268Z,75.00
2018-12-22T13:31:07.764Z,77.50
2018-12-22T13:33:36.266Z,79.60
2018-12-22T13:36:04.750Z,81.70
2018-12-22T13:38:36.518Z,82.50
2018-12-22T13:41:04.943Z,82.30
2018-12-22T13:43:33.351Z,82.50
2018-12-22T13:46:01.828Z,80.50
2018-12-22T13:48:30.306Z,79.40
2018-12-22T13:50:59.337Z,78.80
2018-12-22T13:53:27.911Z,80.50
2018-12-22T13:55:56.326Z,81.30
2018-12-22T13:58:26.415Z,82.20
2018-12-22T14:00:54.874Z,83.50
2018-12-22T14:03:32.165Z,84.90
2018-12-22T14:06:00.611Z,86.50
2018-12-22T14:08:29.443Z,88.10
2018-12-22T14:10:57.878Z,89.40
2018-12-22T14:13:26.611Z,89.50
2018-12-22T14:16:01.469Z,90.00
2018-12-22T14:18:54.162Z,90.10
2018-12-22T14:21:22.569Z,90.60
2018-12-22T14:25:02.079Z,90.90
2018-12-22T14:27:31.305Z,91.10
2018-12-22T14:29:59.759Z,91.40
2018-12-22T14:32:28.283Z,91.70
2018-12-22T14:35:02.689Z,92.10
2018-12-22T14:37:31.143Z,92.20
2018-12-22T14:39:59.573Z,92.20
2018-12-22T14:42:28.067Z,92.50
2018-12-22T14:44:56.663Z,92.50
2018-12-22T14:47:25.139Z,92.80
2018-12-22T14:49:53.579Z,92.90
2018-12-22T14:52:22.030Z,93.20
2018-12-22T14:54:50.567Z,93.30
2018-12-22T14:57:19.534Z,93.40
2018-12-22T14:59:48.073Z,93.70
2018-12-22T15:02:16.508Z,93.80
2018-12-22T15:04:44.954Z,94.30
2018-12-22T15:07:13.735Z,93.80
2018-12-22T15:09:42.207Z,93.90
2018-12-22T15:12:10.622Z,93.90
2018-12-22T15:14:39.035Z,93.90
2018-12-22T15:17:07.472Z,93.90
2018-12-22T15:19:37.748Z,94.00
2018-12-22T15:22:06.620Z,94.10
2018-12-22T15:24:35.273Z,94.00
2018-12-22T15:27:03.793Z,94.20
2018-12-22T15:29:32.532Z,94.30
2018-12-22T15:32:00.963Z,94.30
2018-12-22T15:34:29.370Z,94.40
2018-12-22T15:36:58.652Z,94.50
2018-12-22T15:39:27.102Z,94.50
2018-12-22T15:41:55.649Z,94.70
2018-12-22T15:44:24.117Z,94.90
2018-12-22T15:46:52.555Z,94.90
2018-12-22T15:49:22.748Z,95.10
2018-12-22T15:51:51.190Z,95.30
2018-12-22T15:54:19.639Z,95.40
2018-12-22T15:56:48.053Z,95.50
2018-12-22T15:59:16.470Z,95.60
2018-12-22T16:01:44.940Z,95.60
2018-12-22T16:04:13.403Z,95.30
2018-12-22T16:06:41.939Z,95.70
2018-12-22T16:09:10.434Z,95.80
2018-12-22T16:11:38.882Z,95.80
2018-12-22T16:14:07.382Z,96.00
2018-12-22T16:16:35.796Z,96.10
2018-12-22T16:19:04.311Z,96.10
2018-12-22T16:21:32.751Z,96.20
2018-12-22T16:24:01.297Z,96.40
2018-12-22T16:26:29.746Z,96.50
2018-12-22T16:29:26.333Z,96.70
2018-12-22T16:31:54.805Z,96.90
2018-12-22T16:34:23.289Z,97.00
2018-12-22T16:36:51.753Z,97.10
2018-12-22T16:39:20.192Z,97.20
2018-12-22T16:41:48.628Z,97.30
2018-12-22T16:44:18.339Z,97.30
2018-12-22T16:46:46.791Z,97.40
2018-12-22T16:49:15.333Z,97.40
2018-12-22T16:51:43.970Z,97.50
2018-12-22T16:54:12.424Z,97.40
2018-12-22T16:56:40.871Z,97.40
2018-12-22T16:59:09.384Z,97.50
2018-12-22T17:01:44.002Z,97.50
2018-12-22T17:04:12.584Z,98.00
2018-12-22T17:06:42.049Z,97.50
2018-12-22T17:09:11.136Z,97.60
2018-12-22T17:11:39.819Z,97.70
2018-12-22T17:14:08.260Z,97.80
2018-12-22T17:16:40.181Z,97.80
2018-12-22T17:19:08.781Z,97.90
2018-12-22T17:21:51.769Z,97.90
2018-12-22T17:24:35.385Z,98.00
2018-12-22T17:27:03.809Z,98.00
2018-12-22T17:29:32.228Z,98.10
2018-12-22T17:32:00.693Z,98.10
2018-12-22T17:34:29.126Z,98.20
2018-12-22T17:36:57.598Z,98.30
2018-12-22T17:39:26.064Z,98.30
2018-12-22T17:41:54.505Z,98.30
2018-12-22T17:44:22.957Z,98.40
2018-12-22T17:46:51.518Z,98.30
2018-12-22T17:49:19.945Z,98.20
2018-12-22T17:51:48.397Z,98.20
2018-12-22T17:54:16.832Z,98.20
2018-12-22T17:56:45.523Z,98.20
2018-12-22T17:59:14.042Z,98.20
2018-12-22T18:01:42.470Z,98.20
2018-12-22T18:04:11.003Z,98.20
2018-12-22T18:06:39.471Z,98.20
2018-12-22T18:09:08.730Z,98.30
2018-12-22T18:11:37.143Z,98.20
2018-12-22T18:14:05.576Z,98.20
2018-12-22T18:16:34.070Z,98.20
2018-12-22T18:19:02.534Z,98.20
2018-12-22T18:21:30.957Z,98.30
2018-12-22T18:23:59.418Z,98.30
2018-12-22T18:26:27.881Z,98.30
2018-12-22T18:28:56.311Z,98.30
2018-12-22T18:31:24.835Z,98.40
2018-12-22T18:33:53.241Z,98.50
2018-12-22T18:36:21.676Z,98.50
2018-12-22T18:38:50.149Z,98.50
2018-12-22T18:41:18.587Z,98.60
2018-12-22T18:43:46.998Z,98.70
2018-12-22T18:46:15.420Z,98.70
2018-12-22T18:48:44.016Z,98.70
2018-12-22T18:51:12.526Z,98.80
2018-12-22T18:53:40.958Z,98.90
2018-12-22T18:56:09.435Z,99.00
2018-12-22T18:58:37.896Z,99.00
2018-12-22T19:01:06.471Z,99.00
2018-12-22T19:03:35.724Z,99.00
2018-12-22T19:06:04.325Z,99.10
2018-12-22T19:08:32.839Z,99.20
2018-12-22T19:11:05.235Z,99.20
2018-12-22T19:13:33.716Z,99.20
2018-12-22T19:16:02.176Z,99.20
2018-12-22T19:18:30.609Z,99.30
2018-12-22T19:20:59.053Z,99.30
2018-12-22T19:23:28.453Z,99.30
2018-12-22T19:25:56.885Z,99.40
2018-12-22T19:28:25.325Z,99.40
2018-12-22T19:30:53.740Z,99.40
2018-12-22T19:33:22.149Z,99.40
2018-12-22T19:35:50.555Z,99.50
2018-12-22T19:38:18.972Z,99.60
2018-12-22T19:40:47.431Z,99.60
2018-12-22T19:43:15.862Z,99.60
2018-12-22T19:45:44.300Z,99.70
2018-12-22T19:48:12.719Z,99.70
2018-12-22T19:50:41.132Z,99.60
2018-12-22T19:53:09.667Z,99.70
2018-12-22T19:55:38.089Z,99.70
2018-12-22T19:58:06.503Z,99.70
2018-12-22T20:00:34.960Z,99.60
2018-12-22T20:03:03.440Z,99.80
2018-12-22T20:05:31.954Z,99.80
2018-12-22T20:08:00.357Z,99.80
2018-12-22T20:10:28.750Z,99.80
2018-12-22T20:12:57.174Z,99.80
2018-12-22T20:15:25.629Z,99.90
2018-12-22T20:17:54.061Z,99.90
2018-12-22T20:20:22.493Z,99.80
2018-12-22T20:22:50.923Z,99.90
2018-12-22T20:25:19.352Z,99.90
2018-12-22T20:27:47.766Z,99.90
2018-12-22T20:30:16.246Z,99.90
2018-12-22T20:32:44.699Z,99.90
2018-12-22T20:35:13.382Z,99.90
2018-12-22T20:37:41.790Z,99.90
2018-12-22T20:40:10.343Z,99.90
2018-12-22T20:42:38.851Z,99.90
2018-12-22T20:45:07.666Z,99.90
2018-12-22T20:47:36.118Z,99.90
2018-12-22T20:50:04.815Z,99.90
2018-12-22T20:52:33.215Z,99.90
2018-12-22T20:55:01.655Z,99.90
2018-12-22T20:57:30.084Z,99.90
2018-12-22T20:59:58.488Z,99.90
2018-12-22T21:02:26.906Z,99.90
2018-12-22T21:05:02.321Z,99.90
2018-12-22T21:07:30.771Z,99.90
2018-12-22T21:09:59.221Z,99.90
2018-12-22T21:12:27.655Z,99.90
2018-12-22T21:14:56.120Z,99.90
2018-12-22T21:17:24.551Z,99.90
2018-12-22T21:19:52.993Z,99.90
2018-12-22T21:22:21.403Z,99.90
2018-12-22T21:24:49.816Z,99.90
2018-12-22T21:27:18.267Z,99.90
2018-12-22T21:29:46.711Z,99.90
2018-12-22T21:32:15.121Z,99.90
2018-12-22T21:34:43.556Z,99.90
2018-12-22T21:37:11.962Z,99.90
2018-12-22T21:39:40.396Z,99.90
2018-12-22T21:42:08.810Z,99.90
2018-12-22T21:44:37.226Z,99.90
2018-12-22T21:47:05.654Z,99.90
2018-12-22T21:49:34.044Z,99.90
2018-12-22T21:52:02.436Z,99.90
2018-12-22T21:54:30.913Z,99.90
2018-12-22T21:56:59.446Z,99.90
2018-12-22T21:59:27.861Z,99.90
2018-12-22T22:01:56.727Z,99.90
2018-12-22T22:04:25.138Z,99.90
2018-12-22T22:06:53.558Z,99.90
2018-12-22T22:09:22.009Z,99.90
2018-12-22T22:11:50.411Z,99.90
2018-12-22T22:14:18.828Z,99.90
2018-12-22T22:16:47.230Z,99.90
2018-12-22T22:19:15.627Z,99.90
2018-12-22T22:21:44.107Z,99.90
2018-12-22T22:24:12.641Z,99.90
2018-12-22T22:26:41.096Z,99.90
2018-12-22T22:29:09.523Z,99.90
2018-12-22T22:31:37.968Z,99.90
2018-12-22T22:34:06.401Z,99.90
2018-12-22T22:36:34.805Z,99.90
2018-12-22T22:39:04.423Z,99.90
2018-12-22T22:41:32.880Z,99.90
2018-12-22T22:44:01.381Z,99.90
2018-12-22T22:46:29.810Z,99.90
2018-12-22T22:48:58.290Z,99.90
2018-12-22T22:51:26.798Z,99.90
2018-12-22T22:53:55.203Z,99.90
2018-12-22T22:56:23.619Z,99.90
2018-12-22T22:58:52.164Z,99.90
2018-12-22T23:01:20.606Z,99.90
2018-12-22T23:03:49.042Z,99.90
2018-12-22T23:06:17.467Z,99.90
2018-12-22T23:08:45.880Z,99.90
2018-12-22T23:11:14.312Z,99.90
2018-12-22T23:13:42.705Z,99.90
2018-12-22T23:16:11.204Z,99.90
2018-12-22T23:18:39.631Z,99.90
2018-12-22T23:21:08.038Z,99.90
2018-12-22T23:23:36.470Z,99.90
2018-12-22T23:26:04.899Z,99.90
2018-12-22T23:28:33.310Z,99.90
2018-12-22T23:31:01.720Z,99.90
2018-12-22T23:33:30.108Z,99.90
2018-12-22T23:35:58.533Z,99.90
2018-12-22T23:38:26.929Z,99.90
2018-12-22T23:40:55.331Z,99.90
2018-12-22T23:43:23.717Z,99.90
2018-12-22T23:45:52.124Z,99.90
2018-12-22T23:48:20.578Z,99.90
2018-12-22T23:50:48.972Z,99.90
2018-12-22T23:53:17.385Z,99.90
2018-12-22T23:55:45.792Z,99.90
2018-12-22T23:58:14.259Z,99.90
